Main page
METAR-TAF:

METAR-TAF

Airports :

Beauregard Regional Airport

DeRidder, Louisiana, United States

latitude: 30-49-54N, longitude: 093-20-23W, elevation: 207 ft

Current weather observation

The report was made 21 minutes ago, at 20:55 UTC
Calm wind
Temperature 66°F
Humidity 94%
Pressure 29.91 in. Hg
Visibility: 2.5 miles
Overcast at a height of 400 ft
mist

METAR: KDRI 172055Z AUTO 00000KT 2 1/2SM BR OVC004 19/18 A2991 RMK AO2 T01900183

Time: 15:16 (21:16 UTC)


TAF: missing

Weather observations and forecasts of more than 4000 airports (METAR and TAF reports).

The available stations are represented by yellow and red dots on the map.

Hover mouse over dot to see the name of the station.

Then click to see weather observations and forecasts.

To change the map : click on the green buttons with a black cross to zoom in, on the green button with a dash to zoom out, or on the green arrows for adjacent maps.


METAR-TAF: